Home > Products > Valid Products > MTR

000
SAUS45 KRIW 260357
MTRP60
METAR KP60 260356Z AUTO 00000KT 00/M03 A2984 RMK AO1 SLP101
T00001033





000
SAUS45 KRIW 260257
MTRP60
METAR KP60 260256Z AUTO 00000KT 00/M04 A2983 RMK AO1 SLP096
T00001044 51004 $





000
SAUS45 KRIW 260257
MTRP60
METAR KP60 260256Z AUTO 00000KT 00/M04 A2983 RMK AO1 SLP096
T00001044 51004 $





000
SAUS45 KRIW 260157
MTRP60
METAR KP60 260156Z AUTO 00000KT 02/M06 A2982 RMK AO1 SLP088
T00221056 $





000
SAUS45 KRIW 260157
MTRP60
METAR KP60 260156Z AUTO 00000KT 02/M06 A2982 RMK AO1 SLP088
T00221056 $





000
SAUS45 KRIW 260057
MTRP60
METAR KP60 260056Z AUTO 00000KT 02/M05 A2982 RMK AO1 SLP087
T00221050 $





000
SAUS45 KRIW 252357
MTRP60
METAR KP60 252356Z AUTO 00000KT 04/M07 A2981 RMK AO1 SLP080
T00391067 10050 20000 56006 $





000
SAUS45 KRIW 252357
MTRP60
METAR KP60 252356Z AUTO 00000KT 04/M07 A2981 RMK AO1 SLP080
T00391067 10050 20000 56006 $





000
SAUS45 KRIW 252257
MTRP60
METAR KP60 252256Z AUTO VRB05KT 04/M05 A2982 RMK AO1 SLP078
T00441050 $





000
SAUS45 KRIW 252157
MTRP60
METAR KP60 252156Z AUTO 26007KT 180V300 04/M04 A2982 RMK AO1 SLP081
T00391044 $





000
SAUS45 KRIW 252057
MTRP60
METAR KP60 252056Z AUTO 03/M03 A2983 RMK AO1 SLP084 T00281033 51005
$





000
SAUS45 KRIW 251957
MTRP60
METAR KP60 251956Z AUTO 00000KT 01/M04 A2983 RMK AO1 SLP092
T00061039 $





000
SAUS45 KRIW 251857
MTRP60
METAR KP60 251856Z AUTO 00000KT 01/M05 A2982 RMK AO1 SLP089
T00061050 $





000
SAUS45 KRIW 251857
MTRP60
METAR KP60 251856Z AUTO 00000KT 01/M05 A2982 RMK AO1 SLP089
T00061050 $





000
SAUS45 KRIW 251757
MTRP60
METAR KP60 251756Z AUTO VRB04KT 01/M04 A2981 RMK AO1 SLP081
T00111044 10011 21017 51006 $





000
SAUS45 KRIW 251657
MTRP60
METAR KP60 251656Z AUTO 28005KT M01/M04 A2981 RMK AO1 SLP086
T10061039 $





000
SAUS45 KRIW 251557
MTRP60
METAR KP60 251556Z AUTO VRB03KT M01/M04 A2981 RMK AO1 SLP086
T10111039 $





000
SAUS45 KRIW 251557
MTRP60
METAR KP60 251556Z AUTO VRB03KT M01/M04 A2981 RMK AO1 SLP086
T10111039 $





000
SAUS45 KRIW 251458
MTRP60
METAR KP60 251456Z AUTO M01/M04 A2979 RMK AO1 SLP080 T10111039 53006
$





000
SAUS45 KRIW 251458
MTRP60
METAR KP60 251456Z AUTO M01/M04 A2979 RMK AO1 SLP080 T10111039 53006
$





000
SAUS45 KRIW 251357
MTRP60
METAR KP60 251356Z AUTO VRB05KT M02/M04 A2978 RMK AO1 SLP081
T10171039 $





000
SAUS45 KRIW 251257
MTRP60
METAR KP60 251256Z AUTO 00000KT M02/M03 A2977 RMK AO1 SLP077
T10171033 $





000
SAUS45 KRIW 251157
MTRP60
METAR KP60 251156Z AUTO 20004KT M02/M04 A2977 RMK AO1 SLP061 60004
70014 T10171039 10011 21017 53009 $





000
SAUS45 KRIW 251157
MTRP60
METAR KP60 251156Z AUTO 20004KT M02/M04 A2977 RMK AO1 SLP061 60004
70014 T10171039 10011 21017 53009 $





000
SAUS45 KRIW 251057
MTRP60
METAR KP60 251056Z AUTO VRB03KT M01/M03 A2974 RMK AO1 SLP049
T10111028 $





000
SAUS45 KRIW 251057
MTRP60
METAR KP60 251056Z AUTO VRB03KT M01/M03 A2974 RMK AO1 SLP049
T10111028 $





000
SAUS45 KRIW 250957
MTRP60
METAR KP60 250956Z AUTO VRB04KT M01/M02 A2973 RMK AO1 SLP043 P0001
T10061022 $





000
SAUS45 KRIW 250857
MTRP60
METAR KP60 250856Z AUTO VRB05KT 00/M02 A2973 RMK AO1 SLP031 P0001
60003 T00001017 53002 $





000
SAUS45 KRIW 250757
MTRP60
METAR KP60 250756Z AUTO 24003KT 01/M01 A2972 RMK AO1 SLP024
T00061006 $





000
SAUS45 KRIW 250757
MTRP60
METAR KP60 250756Z AUTO 24003KT 01/M01 A2972 RMK AO1 SLP024
T00061006 $





000
SAUS45 KRIW 250657
MTRP60
METAR KP60 250656Z AUTO 00000KT 01/M01 A2972 RMK AO1 SLP029 P0002
T00061006 401001050 $





000
SAUS45 KRIW 250657
MTRP60
METAR KP60 250656Z AUTO 00000KT 01/M01 A2972 RMK AO1 SLP029 P0002
T00061006 401001050 $





000
SAUS45 KRIW 250558
MTRP60
METAR KP60 250556Z AUTO 00000KT 01/00 A2972 RMK AO1 SLP029 60010
T00110000 10044 20006 58007 $





000
SAUS45 KRIW 250558
MTRP60
METAR KP60 250556Z AUTO 00000KT 01/00 A2972 RMK AO1 SLP029 60010
T00110000 10044 20006 58007 $





000
SAUS45 KRIW 250457
MTRP60
METAR KP60 250456Z AUTO 00000KT 01/00 A2975 RMK AO1 SLP047 T00060000
$





000
SAUS45 KRIW 250357
MTRP60
METAR KP60 250356Z AUTO 00000KT 01/00 A2975 RMK AO1 SLP055 T00110000
$





000
SAUS45 KRIW 250257
MTRP60
METAR KP60 250256Z AUTO VRB03KT 01/00 A2975 RMK AO1 SLP058 60010
T00060000 50004 $





000
SAUS45 KRIW 250257
MTRP60
METAR KP60 250256Z AUTO VRB03KT 01/00 A2975 RMK AO1 SLP058 60010
T00060000 50004 $





000
SAUS45 KRIW 250157
MTRP60
METAR KP60 250156Z AUTO 00000KT 01/M01 A2975 RMK AO1 SLP071 P0006
T00061006 $





000
SAUS45 KRIW 250157
MTRP60
METAR KP60 250156Z AUTO 00000KT 01/M01 A2975 RMK AO1 SLP071 P0006
T00061006 $





000
SAUS45 KRIW 250057
MTRP60
METAR KP60 250056Z AUTO 00000KT 01/00 A2976 RMK AO1 SLP078 P0004
T00060000 $





000
SAUS45 KRIW 250057
MTRP60
METAR KP60 250056Z AUTO 00000KT 01/00 A2976 RMK AO1 SLP078 P0004
T00060000 $





000
SAUS45 KRIW 242357
MTRP60
METAR KP60 242356Z AUTO 00000KT 04/M01 A2973 RMK AO1 SLP060
T00441011 10100 20028 50001 $





000
SAUS45 KRIW 242357
MTRP60
METAR KP60 242356Z AUTO 00000KT 04/M01 A2973 RMK AO1 SLP060
T00441011 10100 20028 50001 $





000
SAUS45 KRIW 242257
MTRP60
METAR KP60 242256Z AUTO VRB03KT 05/M01 A2974 RMK AO1 SLP062
T00501006 $





000
SAUS45 KRIW 242157
MTRP60
METAR KP60 242156Z AUTO 26008G17KT 220V290 06/M03 A2974 RMK AO1
SLP058 T00611033 $





000
SAUS45 KRIW 242057
MTRP60
METAR KP60 242056Z AUTO VRB05KT 08/M06 A2973 RMK AO1 SLP044
T00831056 56008 $





000
SAUS45 KRIW 241957
MTRP60
METAR KP60 241956Z AUTO 28008KT 09/M05 A2973 RMK AO1 SLP042
T00891050





000
SAUS45 KRIW 241857
MTRP60
METAR KP60 241856Z AUTO VRB05KT 08/M04 A2974 RMK AO1 SLP046
T00831044





000
SAUS45 KRIW 241757
MTRP60
METAR KP60 241756Z AUTO VRB04KT 08/M04 A2976 RMK AO1 SLP051
T00781044 10083 21050 58009





000
SAUS45 KRIW 241757
MTRP60
METAR KP60 241756Z AUTO VRB04KT 08/M04 A2976 RMK AO1 SLP051
T00781044 10083 21050 58009





000
SAUS45 KRIW 241657
MTRP60
METAR KP60 241656Z AUTO VRB03KT 05/M04 A2977 RMK AO1 SLP066
T00501039





000
SAUS45 KRIW 241557
MTRP60
METAR KP60 241556Z AUTO 09003KT 02/M04 A2978 RMK AO1 SLP077
T00221039





000
SAUS45 KRIW 241457
MTRP60
METAR KP60 241456Z AUTO VRB04KT 01/M04 A2979 RMK AO1 SLP077
T00111039 56000 $





000
SAUS45 KRIW 241457
MTRP60
METAR KP60 241456Z AUTO VRB04KT 01/M04 A2979 RMK AO1 SLP077
T00111039 56000 $





000
SAUS45 KRIW 241357
MTRP60
METAR KP60 241356Z AUTO 00000KT M02/M04 A2979 RMK AO1 SLP075
T10171044 $





000
SAUS45 KRIW 241357
MTRP60
METAR KP60 241356Z AUTO 00000KT M02/M04 A2979 RMK AO1 SLP075
T10171044 $





000
SAUS45 KRIW 241257
MTRP60
METAR KP60 241256Z AUTO 00000KT M04/M07 A2978 RMK AO1 SLP067
T10441067 $





000
SAUS45 KRIW 241257
MTRP60
METAR KP60 241256Z AUTO 00000KT M04/M07 A2978 RMK AO1 SLP067
T10441067 $





000
SAUS45 KRIW 241157
MTRP60
METAR KP60 241156Z AUTO 00000KT M05/M07 A2979 RMK AO1 SLP070 70004
T10501067 11028 21050 55003 $





000
SAUS45 KRIW 241157
MTRP60
METAR KP60 241156Z AUTO 00000KT M05/M07 A2979 RMK AO1 SLP070 70004
T10501067 11028 21050 55003 $





000
SAUS45 KRIW 241057
MTRP60
METAR KP60 241056Z AUTO 32003KT M05/M07 A2979 RMK AO1 SLP069
T10501072 $





000
SAUS45 KRIW 241057
MTRP60
METAR KP60 241056Z AUTO 32003KT M05/M07 A2979 RMK AO1 SLP069
T10501072 $





000
SAUS45 KRIW 240957
MTRP60
METAR KP60 240956Z AUTO 00000KT M05/M07 A2980 RMK AO1 SLP077
T10501072 $





000
SAUS45 KRIW 240857
MTRP60
METAR KP60 240856Z AUTO 31003KT M04/M07 A2980 RMK AO1 SLP074
T10441072 58006 $





000
SAUS45 KRIW 240857
MTRP60
METAR KP60 240856Z AUTO 31003KT M04/M07 A2980 RMK AO1 SLP074
T10441072 58006 $





000
SAUS45 KRIW 240757
MTRP60
METAR KP60 240756Z AUTO 30003KT M04/M07 A2981 RMK AO1 SLP080
T10391067 $





000
SAUS45 KRIW 240658
MTRP60
METAR KP60 240656Z AUTO 00000KT M03/M07 A2983 RMK AO1 SLP088
T10331067 400891033 $





000
SAUS45 KRIW 240559
MTRP60
METAR KP60 240556Z AUTO 00000KT M03/M06 A2983 RMK AO1 SLP090
T10281061 10083 21028 58000 $





000
SAUS45 KRIW 240559
MTRP60
METAR KP60 240556Z AUTO 00000KT M03/M06 A2983 RMK AO1 SLP090
T10281061 10083 21028 58000 $





000
SAUS45 KRIW 240457
MTRP60
METAR KP60 240456Z AUTO 00000KT M03/M06 A2983 RMK AO1 SLP095
T10281056 $





000
SAUS45 KRIW 240457
MTRP60
METAR KP60 240456Z AUTO 00000KT M03/M06 A2983 RMK AO1 SLP095
T10281056 $





000
SAUS45 KRIW 240357
MTRP60
METAR KP60 240356Z AUTO 00000KT M02/M06 A2984 RMK AO1 SLP095
T10221056 $





000
SAUS45 KRIW 240357
MTRP60
METAR KP60 240356Z AUTO 00000KT M02/M06 A2984 RMK AO1 SLP095
T10221056 $





000
SAUS45 KRIW 240257
MTRP60
METAR KP60 240256Z AUTO 32003KT 00/M05 A2983 RMK AO1 SLP080
T00001050 55001 $





000
SAUS45 KRIW 240257
MTRP60
METAR KP60 240256Z AUTO 32003KT 00/M05 A2983 RMK AO1 SLP080
T00001050 55001 $





000
SAUS45 KRIW 240157
MTRP60
METAR KP60 240156Z AUTO 00000KT 04/M05 A2982 RMK AO1 SLP073
T00391050 $





000
SAUS45 KRIW 240057
MTRP60
METAR KP60 240056Z AUTO VRB04KT 08/M07 A2983 RMK AO1 SLP070
T00781067 $





000
SAUS45 KRIW 240057
MTRP60
METAR KP60 240056Z AUTO VRB04KT 08/M07 A2983 RMK AO1 SLP070
T00781067 $





000
SAUS45 KRIW 232357
MTRP60
METAR KP60 232356Z AUTO 08/M04 A2983 RMK AO1 SLP070 T00831044 10089
20028 56012 $





000
SAUS45 KRIW 232357
MTRP60
METAR KP60 232356Z AUTO 08/M04 A2983 RMK AO1 SLP070 T00831044 10089
20028 56012 $





000
SAUS45 KRIW 232257
MTRP60
METAR KP60 232256Z AUTO VRB05KT 08/M03 A2984 RMK AO1 SLP071
T00831028 $





000
SAUS45 KRIW 232157
MTRP60
METAR KP60 232156Z AUTO VRB05KT 07/M02 A2985 RMK AO1 SLP079
T00671017 $





000
SAUS45 KRIW 232057
MTRP60
METAR KP60 232056Z AUTO VRB06G16KT 07/M01 A2987 RMK AO1 SLP083
T00721011 57014 $





000
SAUS45 KRIW 232057
MTRP60
METAR KP60 232056Z AUTO VRB06G16KT 07/M01 A2987 RMK AO1 SLP083
T00721011 57014 $





000
SAUS45 KRIW 231957
MTRP60
METAR KP60 231956Z AUTO VRB04KT 06/01 A2989 RMK AO1 SLP103 T00560011
$





000
SAUS45 KRIW 231857
MTRP60
METAR KP60 231856Z AUTO 00000KT 05/01 A2990 RMK AO1 SLP110 T00500006
$





000
SAUS45 KRIW 231857
MTRP60
METAR KP60 231856Z AUTO 00000KT 05/01 A2990 RMK AO1 SLP110 T00500006
$





000
SAUS45 KRIW 231757
MTRP60
METAR KP60 231756Z AUTO 00000KT 03/02 A2992 RMK AO1 SLP117 P0001
60004 T00330017 10044 21011 50000 $





000
SAUS45 KRIW 231658
MTRP60
METAR KP60 231656Z AUTO 10003KT 03/01 A2993 RMK AO1 SLP118 P0003
T00280006 $





000
SAUS45 KRIW 231658
MTRP60
METAR KP60 231656Z AUTO 10003KT 03/01 A2993 RMK AO1 SLP118 P0003
T00280006 $





000
SAUS45 KRIW 231557
MTRP60
METAR KP60 231556Z AUTO VRB05KT 03/M01 A2993 RMK AO1 SLP120
T00281006 $





000
SAUS45 KRIW 231457
MTRP60
METAR KP60 231456Z AUTO VRB04KT 04/M01 A2992 RMK AO1 SLP107
T00441011 51004 $





000
SAUS45 KRIW 231357
MTRP60
METAR KP60 231356Z AUTO 00000KT 01/M02 A2992 RMK AO1 SLP100
T00111017 $





000
SAUS45 KRIW 231257
MTRP60
METAR KP60 231256Z AUTO 00000KT M01/M02 A2991 RMK AO1 SLP096
T10061022 $





000
SAUS45 KRIW 231257
MTRP60
METAR KP60 231256Z AUTO 00000KT M01/M02 A2991 RMK AO1 SLP096
T10061022 $





000
SAUS45 KRIW 231157
MTRP60
METAR KP60 231156Z AUTO 00000KT M01/M03 A2991 RMK AO1 SLP098
T10111028 10022 21017 56006 $





000
SAUS45 KRIW 231157
MTRP60
METAR KP60 231156Z AUTO 00000KT M01/M03 A2991 RMK AO1 SLP098
T10111028 10022 21017 56006 $





000
SAUS45 KRIW 231058
MTRP60
METAR KP60 231056Z AUTO 00000KT 00/M02 A2991 RMK AO1 SLP087
T00001022 $





000
SAUS45 KRIW 231058
MTRP60
METAR KP60 231056Z AUTO 00000KT 00/M02 A2991 RMK AO1 SLP087
T00001022 $





000
SAUS45 KRIW 230957
MTRP60
METAR KP60 230956Z AUTO 00000KT 01/M02 A2992 RMK AO1 SLP090
T00061022 $





000
SAUS45 KRIW 230857
MTRP60
METAR KP60 230856Z AUTO 00000KT 01/M03 A2993 RMK AO1 SLP093
T00111028 50004 $





000
SAUS45 KRIW 230757
MTRP60
METAR KP60 230756Z AUTO 30003KT M02/M04 A2994 RMK AO1 SLP102
T10171039 $





000
SAUS45 KRIW 230657
MTRP60
METAR KP60 230656Z AUTO 00000KT M02/M04 A2992 RMK AO1 SLP104
T10171044 401331050 $





000
SAUS45 KRIW 230657
MTRP60
METAR KP60 230656Z AUTO 00000KT M02/M04 A2992 RMK AO1 SLP104
T10171044 401331050 $





000
SAUS45 KRIW 230557
MTRP60
METAR KP60 230556Z AUTO 00000KT 00/M04 A2992 RMK AO1 SLP097
T00001039 10100 21006 53004 $





000
SAUS45 KRIW 230557
MTRP60
METAR KP60 230556Z AUTO 00000KT 00/M04 A2992 RMK AO1 SLP097
T00001039 10100 21006 53004 $





    US Dept of Commerce
    National Oceanic and Atmospheric Administration
    National Weather Service
    1325 East West Highway
    Silver Spring, MD 20910
    Page Author: NWS Internet Services Team
Disclaimer
Information Quality
Credits
Glossary
Privacy Policy
Freedom of Information Act (FOIA)
About Us
Career Opportunities